Time;durP1;ratioP1;P1;durP2;ratioP2;P2;SDS_P1;SDS_P2;PMS_P1;PMS_P2;Temp;Humidity;BMP_temperature;BMP_pressure;BME280_temperature;BME280_humidity;BME280_pressure;Samples;Min_cycle;Max_cycle;Signal;HPM_P1;HPM_P2
2023/11/30 00:02:08;;;;;;;5.80;3.70;;;0.20;6.40;;;;;;5032984;28;20180;-70
2023/11/30 00:04:34;;;;;;;4.67;3.80;;;0.20;6.70;;;;;;5032659;28;20650;-70
2023/11/30 00:06:59;;;;;;;6.23;4.33;;;0.20;5.90;;;;;;5033696;28;20219;-70
2023/11/30 00:09:25;;;;;;;5.97;4.17;;;0.30;5.30;;;;;;5033907;28;20171;-69
2023/11/30 00:11:50;;;;;;;7.97;4.90;;;0.20;5.90;;;;;;5032529;28;20179;-69
2023/11/30 00:14:16;;;;;;;7.20;5.00;;;0.10;7.40;;;;;;5033642;28;20210;-69
2023/11/30 00:16:41;;;;;;;9.30;6.30;;;0.00;8.40;;;;;;5033433;28;20272;-70
2023/11/30 00:19:07;;;;;;;10.53;6.40;;;0.10;8.90;;;;;;5033794;28;20624;-70
2023/11/30 00:21:32;;;;;;;11.10;5.33;;;0.10;8.50;;;;;;5033616;28;20182;-69
2023/11/30 00:23:58;;;;;;;9.30;6.30;;;0.20;8.60;;;;;;5032330;28;20555;-70
2023/11/30 00:26:23;;;;;;;6.37;5.40;;;0.20;8.60;;;;;;5033341;28;20206;-69
2023/11/30 00:28:49;;;;;;;6.77;4.93;;;0.30;8.50;;;;;;5033423;28;20182;-69
2023/11/30 00:31:14;;;;;;;7.77;5.10;;;0.30;8.60;;;;;;5033420;28;20190;-69
2023/11/30 00:33:40;;;;;;;8.83;5.37;;;0.30;8.60;;;;;;5032041;28;20175;-70
2023/11/30 00:36:09;;;;;;;8.03;4.80;;;0.30;8.60;;;;;;5033193;28;20179;-70
2023/11/30 00:38:35;;;;;;;9.48;5.65;;;0.40;8.20;;;;;;5033330;28;20224;-70
2023/11/30 00:41:00;;;;;;;10.07;6.47;;;0.40;8.10;;;;;;5032037;28;20211;-69
2023/11/30 00:43:26;;;;;;;6.00;4.70;;;0.40;7.60;;;;;;5033171;28;20190;-69
2023/11/30 00:45:51;;;;;;;5.73;4.37;;;0.50;7.20;;;;;;5033012;28;20175;-69
2023/11/30 00:48:17;;;;;;;5.30;4.23;;;0.50;7.20;;;;;;5032616;28;20691;-70
2023/11/30 00:50:42;;;;;;;5.50;3.70;;;0.60;6.20;;;;;;5033233;28;20268;-71
2023/11/30 00:53:08;;;;;;;7.37;3.47;;;0.60;5.60;;;;;;5033089;28;20178;-71
2023/11/30 00:55:34;;;;;;;5.13;3.70;;;0.60;5.10;;;;;;5031512;28;20207;-71
2023/11/30 00:57:59;;;;;;;5.23;3.47;;;0.50;4.90;;;;;;5032913;28;20195;-71
2023/11/30 01:00:25;;;;;;;12.50;4.20;;;0.40;5.50;;;;;;5031857;28;20197;-71
2023/11/30 01:02:50;;;;;;;6.73;3.63;;;0.30;5.90;;;;;;5032824;28;20270;-71
2023/11/30 01:05:16;;;;;;;7.13;3.43;;;0.30;6.40;;;;;;5033001;28;20632;-71
2023/11/30 01:07:41;;;;;;;10.70;4.47;;;0.20;6.60;;;;;;5032828;28;20260;-72
2023/11/30 01:10:07;;;;;;;6.20;3.90;;;0.10;7.00;;;;;;5032903;28;20183;-71
2023/11/30 01:12:33;;;;;;;6.97;4.70;;;0.10;7.80;;;;;;5031340;28;20547;-71
2023/11/30 01:14:59;;;;;;;4.50;3.92;;;0.00;8.40;;;;;;5032358;28;20734;-70
2023/11/30 01:17:25;;;;;;;4.47;3.60;;;0.00;8.40;;;;;;5032582;28;20283;-70
2023/11/30 01:19:50;;;;;;;5.07;3.70;;;0.00;8.40;;;;;;5032554;28;20425;-70
2023/11/30 01:22:16;;;;;;;6.20;4.10;;;-0.10;8.30;;;;;;5032479;28;20206;-71
2023/11/30 01:24:41;;;;;;;5.50;3.60;;;-0.20;8.30;;;;;;5032247;28;20183;-72
2023/11/30 01:27:07;;;;;;;5.77;4.20;;;-0.20;8.70;;;;;;5032390;28;20581;-70
2023/11/30 01:29:32;;;;;;;6.60;4.20;;;-0.30;9.30;;;;;;5031072;28;20186;-70
2023/11/30 01:31:58;;;;;;;4.20;3.20;;;-0.30;9.80;;;;;;5032579;28;20711;-71
2023/11/30 01:34:24;;;;;;;6.20;3.97;;;-0.40;9.80;;;;;;5032211;28;20209;-71
2023/11/30 01:36:49;;;;;;;5.03;3.37;;;-0.40;10.30;;;;;;5031962;28;20201;-72
2023/11/30 01:39:15;;;;;;;6.23;4.97;;;-0.50;10.20;;;;;;5032258;28;20258;-71
2023/11/30 01:41:42;;;;;;;5.53;4.27;;;-0.60;10.60;;;;;;5030885;28;20195;-70
2023/11/30 01:44:08;;;;;;;6.78;4.03;;;-0.60;10.80;;;;;;5032169;28;20279;-70
2023/11/30 01:46:36;;;;;;;8.55;4.55;;;-0.60;11.80;;;;;;5031899;28;20294;-71
2023/11/30 01:49:02;;;;;;;5.95;4.18;;;-0.70;11.70;;;;;;5032138;28;20569;-70
2023/11/30 01:51:31;;;;;;;6.63;4.77;;;-0.70;11.70;;;;;;5032177;28;20179;-71
2023/11/30 01:53:59;;;;;;;5.75;4.15;;;-0.80;12.20;;;;;;5031851;28;20203;-72
2023/11/30 01:56:24;;;;;;;4.68;3.63;;;-0.90;12.90;;;;;;5031656;28;20245;-71
2023/11/30 01:58:52;;;;;;;7.13;4.67;;;-0.90;12.80;;;;;;5029885;28;20187;-73
2023/11/30 02:01:18;;;;;;;4.07;3.67;;;-0.90;13.40;;;;;;5031887;28;20167;-71
2023/11/30 02:03:44;;;;;;;6.45;4.88;;;-1.00;13.90;;;;;;5031829;28;20179;-71
2023/11/30 02:06:10;;;;;;;7.30;5.05;;;-1.00;14.00;;;;;;5031594;28;20182;-71
2023/11/30 02:08:35;;;;;;;8.13;4.73;;;-1.00;14.10;;;;;;5031818;28;20233;-71
2023/11/30 02:11:01;;;;;;;6.23;4.87;;;-1.00;14.40;;;;;;5031749;28;20719;-71
2023/11/30 02:13:26;;;;;;;9.00;6.03;;;-1.10;14.40;;;;;;5030499;28;20187;-71
2023/11/30 02:15:52;;;;;;;6.17;3.53;;;-1.00;14.80;;;;;;5031586;28;20199;-72
2023/11/30 02:18:18;;;;;;;5.40;4.43;;;-1.00;14.40;;;;;;5030380;28;20682;-71
2023/11/30 02:20:43;;;;;;;5.50;4.00;;;-1.00;14.70;;;;;;5031648;28;20183;-71
2023/11/30 02:23:09;;;;;;;5.37;3.63;;;-1.00;14.00;;;;;;5031722;28;20182;-72
2023/11/30 02:25:34;;;;;;;4.37;3.60;;;-1.00;13.70;;;;;;5030105;28;20658;-73
2023/11/30 02:28:00;;;;;;;7.10;4.90;;;-1.00;14.40;;;;;;5031485;28;20278;-72
2023/11/30 02:30:25;;;;;;;8.43;4.30;;;-1.00;13.60;;;;;;5031633;28;20727;-72
2023/11/30 02:32:51;;;;;;;6.50;3.90;;;-1.00;14.40;;;;;;5031636;28;20182;-71
2023/11/30 02:35:17;;;;;;;6.53;4.23;;;-1.00;13.70;;;;;;5031219;28;20210;-72
2023/11/30 02:37:42;;;;;;;8.27;3.80;;;-0.90;13.40;;;;;;5030319;28;20206;-73
2023/11/30 02:40:08;;;;;;;5.30;3.70;;;-0.90;13.00;;;;;;5031642;28;20170;-71
2023/11/30 02:42:34;;;;;;;7.03;4.47;;;-0.90;13.10;;;;;;5031427;28;20210;-72
2023/11/30 02:45:00;;;;;;;8.43;5.40;;;-0.90;13.40;;;;;;5031277;28;20210;-72
2023/11/30 02:47:25;;;;;;;6.97;4.23;;;-0.90;13.50;;;;;;5031091;28;20265;-72
2023/11/30 02:49:51;;;;;;;5.67;4.10;;;-0.80;12.90;;;;;;5031398;28;20198;-72
2023/11/30 02:52:16;;;;;;;8.70;5.23;;;-0.90;13.30;;;;;;5031272;28;20176;-72
2023/11/30 02:54:42;;;;;;;7.50;5.30;;;-0.90;13.30;;;;;;5029840;28;20199;-72
2023/11/30 02:57:07;;;;;;;5.63;3.97;;;-0.90;13.50;;;;;;5031089;28;20226;-72
2023/11/30 02:59:33;;;;;;;8.37;4.40;;;-0.90;14.60;;;;;;5031458;28;20176;-72
2023/11/30 03:01:58;;;;;;;6.00;3.97;;;-1.00;15.00;;;;;;5030098;28;20172;-71
2023/11/30 03:04:24;;;;;;;5.93;4.10;;;-1.00;15.50;;;;;;5031492;28;20224;-71
2023/11/30 03:06:50;;;;;;;4.73;3.40;;;-1.00;15.80;;;;;;5031065;28;20213;-72
2023/11/30 03:09:16;;;;;;;5.18;3.65;;;-1.00;15.90;;;;;;5031146;28;20178;-71
2023/11/30 03:11:41;;;;;;;5.13;3.73;;;-0.90;15.80;;;;;;5034450;28;20660;-72
2023/11/30 03:14:07;;;;;;;3.83;2.83;;;-0.90;16.00;;;;;;5033527;28;20236;-72
2023/11/30 03:16:32;;;;;;;4.77;3.37;;;-0.80;16.40;;;;;;5033427;28;20245;-71
2023/11/30 03:18:58;;;;;;;5.97;3.60;;;-0.80;15.20;;;;;;5034720;28;20666;-71
2023/11/30 03:21:23;;;;;;;5.67;3.37;;;-0.70;15.20;;;;;;5034865;28;20178;-72
2023/11/30 03:23:51;;;;;;;4.77;3.10;;;-0.60;14.60;;;;;;5034645;28;20174;-71
2023/11/30 03:26:17;;;;;;;5.68;3.45;;;-0.60;14.50;;;;;;5034441;28;20236;-71
2023/11/30 03:28:43;;;;;;;5.50;3.90;;;-0.50;14.50;;;;;;5034603;28;20216;-71
2023/11/30 03:31:08;;;;;;;8.23;4.53;;;-0.50;14.00;;;;;;5033247;28;20206;-71
2023/11/30 03:33:34;;;;;;;7.20;4.07;;;-0.40;13.30;;;;;;5034521;28;20174;-71
2023/11/30 03:35:59;;;;;;;6.90;4.40;;;-0.40;13.10;;;;;;5034183;28;20210;-72
2023/11/30 03:38:25;;;;;;;5.97;4.00;;;-0.40;13.40;;;;;;5034298;28;20215;-71
2023/11/30 03:40:51;;;;;;;6.80;4.60;;;-0.40;13.40;;;;;;5034346;28;20171;-71
2023/11/30 03:43:16;;;;;;;9.70;4.63;;;-0.30;12.90;;;;;;5034475;28;20448;-70
2023/11/30 03:45:42;;;;;;;5.03;4.23;;;-0.30;12.50;;;;;;5032849;28;20282;-70
2023/11/30 03:48:08;;;;;;;5.97;3.40;;;-0.30;12.50;;;;;;5033992;23;20239;-71
2023/11/30 03:50:34;;;;;;;6.60;2.88;;;-0.30;13.90;;;;;;5014355;28;20171;-71
2023/11/30 03:52:59;;;;;;;4.23;3.47;;;-0.40;13.50;;;;;;5014324;28;20179;-70
2023/11/30 03:55:26;;;;;;;6.93;3.80;;;-0.40;15.10;;;;;;5014196;28;20208;-70
2023/11/30 03:57:51;;;;;;;7.30;3.88;;;-0.40;14.80;;;;;;5014906;28;20226;-70
2023/11/30 04:00:17;;;;;;;5.83;4.10;;;-0.30;14.50;;;;;;5013579;28;20168;-69
2023/11/30 04:02:42;;;;;;;4.90;3.57;;;-0.30;14.30;;;;;;5015023;28;20203;-68
2023/11/30 04:05:10;;;;;;;7.57;4.73;;;-0.20;12.60;;;;;;5014089;28;20442;-68
2023/11/30 04:07:39;;;;;;;4.50;3.47;;;-0.10;12.10;;;;;;5013873;28;20603;-68
2023/11/30 04:10:05;;;;;;;6.13;4.32;;;0.00;11.00;;;;;;5013737;28;20176;-68
2023/11/30 04:12:31;;;;;;;4.80;3.53;;;0.10;10.50;;;;;;5013809;28;20172;-68
2023/11/30 04:14:57;;;;;;;5.70;3.87;;;0.10;10.20;;;;;;5014039;28;20291;-68
2023/11/30 04:17:23;;;;;;;5.60;4.20;;;0.20;10.00;;;;;;5013877;28;20199;-68
2023/11/30 04:19:48;;;;;;;6.03;3.70;;;0.20;10.20;;;;;;5013871;28;20172;-68
2023/11/30 04:22:14;;;;;;;4.90;3.83;;;0.20;9.70;;;;;;5013011;28;20181;-68
2023/11/30 04:24:40;;;;;;;6.13;4.17;;;0.30;10.40;;;;;;5013635;28;20172;-69
2023/11/30 04:27:05;;;;;;;4.97;4.03;;;0.30;9.60;;;;;;5013581;28;20275;-68
2023/11/30 04:29:31;;;;;;;5.20;3.90;;;0.20;9.80;;;;;;5013536;28;20203;-68
2023/11/30 04:31:57;;;;;;;5.00;3.47;;;0.20;10.20;;;;;;5013550;28;20262;-68
2023/11/30 04:34:23;;;;;;;6.33;3.53;;;0.20;9.70;;;;;;5013354;28;20227;-68
2023/11/30 04:36:48;;;;;;;4.60;3.90;;;0.20;10.50;;;;;;5011736;28;20192;-68
2023/11/30 04:39:15;;;;;;;8.27;5.00;;;0.30;9.40;;;;;;5013134;28;20263;-69
2023/11/30 04:41:40;;;;;;;10.07;5.10;;;0.30;10.20;;;;;;5013065;28;20615;-68
2023/11/30 04:44:06;;;;;;;5.10;3.60;;;0.30;9.90;;;;;;5013118;28;20203;-69
2023/11/30 04:46:31;;;;;;;6.20;4.20;;;0.30;9.90;;;;;;5011610;28;20187;-68
2023/11/30 04:48:58;;;;;;;6.40;4.20;;;0.40;9.80;;;;;;5013147;28;20183;-68
2023/11/30 04:51:24;;;;;;;7.18;4.53;;;0.40;10.20;;;;;;5012883;28;20199;-68
2023/11/30 04:53:50;;;;;;;5.88;4.65;;;0.40;9.90;;;;;;5012971;28;20180;-68
2023/11/30 04:56:16;;;;;;;8.10;4.87;;;0.50;10.50;;;;;;5011460;28;20186;-68
2023/11/30 04:58:42;;;;;;;9.17;6.50;;;0.60;9.40;;;;;;5012907;28;20415;-68
2023/11/30 05:01:07;;;;;;;9.95;7.63;;;0.60;8.90;;;;;;5013010;28;20299;-68
2023/11/30 05:03:33;;;;;;;12.20;7.27;;;0.80;8.90;;;;;;5013029;28;20254;-68
2023/11/30 05:05:58;;;;;;;12.53;8.70;;;0.80;8.90;;;;;;5012724;28;20642;-68
2023/11/30 05:08:24;;;;;;;13.27;8.83;;;0.90;8.80;;;;;;5012784;28;20197;-68
2023/11/30 05:10:49;;;;;;;14.30;9.53;;;1.00;7.80;;;;;;5012815;28;20199;-68
2023/11/30 05:13:15;;;;;;;15.13;11.97;;;1.10;7.30;;;;;;5012942;28;20240;-68
2023/11/30 05:15:41;;;;;;;17.77;13.07;;;1.20;5.40;;;;;;5012580;28;20192;-68
2023/11/30 05:18:06;;;;;;;19.67;12.77;;;1.30;4.90;;;;;;5012673;28;20196;-68
2023/11/30 05:20:33;;;;;;;13.03;9.73;;;1.40;3.00;;;;;;5012684;28;20265;-68
2023/11/30 05:22:58;;;;;;;13.50;9.35;;;1.50;2.40;;;;;;5012667;28;20423;-68
2023/11/30 05:25:24;;;;;;;11.83;9.27;;;1.60;1.50;;;;;;5012592;28;20181;-68
2023/11/30 05:27:49;;;;;;;16.07;10.70;;;1.70;1.00;;;;;;5012458;28;20614;-68
2023/11/30 05:30:15;;;;;;;14.10;9.87;;;1.60;1.00;;;;;;5011101;28;20663;-68
2023/11/30 05:32:41;;;;;;;12.83;9.53;;;1.70;1.00;;;;;;5011339;28;20227;-70
2023/11/30 05:35:07;;;;;;;13.37;10.77;;;1.80;1.00;;;;;;5012136;28;20820;-69
2023/11/30 05:37:32;;;;;;;11.18;9.40;;;1.80;1.00;;;;;;5012331;28;20196;-68
2023/11/30 05:39:58;;;;;;;14.00;10.07;;;1.80;1.00;;;;;;5012292;28;20285;-68
2023/11/30 05:42:24;;;;;;;14.90;9.50;;;1.90;1.00;;;;;;5012112;28;20205;-68
2023/11/30 05:44:50;;;;;;;13.90;9.33;;;1.90;1.00;;;;;;5012186;28;20499;-69
2023/11/30 05:47:15;;;;;;;11.50;10.30;;;2.00;1.00;;;;;;5012069;28;20213;-69
2023/11/30 05:49:41;;;;;;;12.60;8.93;;;2.00;1.00;;;;;;5010677;28;20502;-69
2023/11/30 05:52:07;;;;;;;11.83;8.20;;;2.00;1.00;;;;;;5012132;28;20183;-68
2023/11/30 05:54:33;;;;;;;12.18;9.95;;;2.00;1.00;;;;;;5011978;28;20227;-68
2023/11/30 05:56:58;;;;;;;13.00;9.80;;;2.00;1.00;;;;;;5011987;28;20582;-68
2023/11/30 05:59:24;;;;;;;12.17;9.60;;;2.10;1.00;;;;;;5012106;28;20262;-68
2023/11/30 06:01:50;;;;;;;11.30;8.63;;;2.10;1.00;;;;;;5012708;28;20190;-68
2023/11/30 06:04:16;;;;;;;15.53;8.73;;;2.20;1.00;;;;;;5014517;28;20176;-72
2023/11/30 06:06:41;;;;;;;12.90;8.07;;;2.20;1.00;;;;;;5014223;28;20203;-71
2023/11/30 06:09:07;;;;;;;13.43;9.33;;;2.20;1.00;;;;;;5015044;28;20183;-71
2023/11/30 06:11:32;;;;;;;11.90;8.33;;;2.30;1.00;;;;;;5014930;28;20178;-70
2023/11/30 06:13:58;;;;;;;9.80;7.83;;;2.30;1.00;;;;;;5014620;28;20182;-71
2023/11/30 06:16:25;;;;;;;9.17;7.90;;;2.30;1.00;;;;;;5014401;28;20411;-72
2023/11/30 06:18:50;;;;;;;9.15;6.93;;;2.30;1.00;;;;;;5013279;28;20175;-72
2023/11/30 06:21:16;;;;;;;10.77;7.77;;;2.30;1.00;;;;;;5014348;28;20371;-71
2023/11/30 06:23:41;;;;;;;15.13;8.30;;;2.30;1.00;;;;;;5015014;28;20185;-71
2023/11/30 06:26:08;;;;;;;12.53;7.67;;;2.20;1.00;;;;;;5014693;28;20326;-72
2023/11/30 06:28:33;;;;;;;9.35;7.30;;;2.30;1.00;;;;;;5012225;28;20201;-72
2023/11/30 06:31:00;;;;;;;12.90;7.93;;;2.20;1.00;;;;;;5012040;28;20215;-72
2023/11/30 06:33:25;;;;;;;11.30;7.93;;;2.20;1.00;;;;;;5010448;28;20178;-71
2023/11/30 06:35:51;;;;;;;9.77;7.00;;;2.20;1.00;;;;;;5011474;28;20220;-72
2023/11/30 06:38:17;;;;;;;10.67;8.27;;;2.20;1.00;;;;;;5011764;28;20197;-73
2023/11/30 06:40:42;;;;;;;13.37;8.27;;;2.20;1.00;;;;;;5011826;28;20430;-70
2023/11/30 06:43:08;;;;;;;11.17;7.73;;;2.20;1.00;;;;;;5011595;28;20646;-69
2023/11/30 06:45:33;;;;;;;12.77;7.67;;;2.20;1.00;;;;;;5012977;28;20189;-69
2023/11/30 06:47:59;;;;;;;9.30;7.43;;;2.20;1.00;;;;;;5015073;28;20216;-70
2023/11/30 06:50:24;;;;;;;11.40;8.27;;;2.10;1.00;;;;;;5015392;28;20275;-69
2023/11/30 06:52:50;;;;;;;11.23;7.60;;;2.10;1.00;;;;;;5015825;28;20182;-69
2023/11/30 06:55:16;;;;;;;14.43;7.63;;;2.10;1.00;;;;;;5015021;28;20218;-69
2023/11/30 06:57:41;;;;;;;8.70;6.33;;;2.20;1.00;;;;;;5015325;28;20201;-69
2023/11/30 07:00:11;;;;;;;8.57;5.87;;;2.20;1.00;;;;;;5015223;28;20592;-69
2023/11/30 07:02:36;;;;;;;9.73;7.47;;;2.20;1.00;;;;;;5014923;28;20355;-69
2023/11/30 07:05:05;;;;;;;13.97;8.37;;;2.20;1.00;;;;;;5014965;28;20261;-69
2023/11/30 07:07:32;;;;;;;9.68;6.85;;;2.20;1.00;;;;;;5015102;28;20517;-69
2023/11/30 07:09:58;;;;;;;11.48;8.45;;;2.20;1.00;;;;;;5015046;28;20571;-70
2023/11/30 07:12:23;;;;;;;10.93;7.95;;;2.20;1.00;;;;;;5014882;28;20340;-69
2023/11/30 07:14:49;;;;;;;8.77;7.67;;;2.20;1.00;;;;;;5014752;28;20733;-70
2023/11/30 07:17:15;;;;;;;8.60;6.90;;;2.20;1.00;;;;;;5014815;28;20217;-71
2023/11/30 07:19:41;;;;;;;11.83;7.53;;;2.20;1.00;;;;;;5013624;28;20678;-70
2023/11/30 07:22:06;;;;;;;11.10;7.37;;;2.20;1.00;;;;;;5014818;28;20177;-70
2023/11/30 07:24:32;;;;;;;7.90;6.30;;;2.20;1.00;;;;;;5014710;28;20209;-69
2023/11/30 07:26:58;;;;;;;10.53;7.20;;;2.20;1.00;;;;;;5014387;28;20209;-70
2023/11/30 07:29:24;;;;;;;6.97;5.68;;;2.30;1.00;;;;;;5014644;28;20217;-69
2023/11/30 07:31:52;;;;;;;12.37;6.90;;;2.20;1.00;;;;;;5014590;28;20656;-70
2023/11/30 07:34:17;;;;;;;9.95;7.15;;;2.30;1.00;;;;;;5014490;28;20518;-70
2023/11/30 07:36:43;;;;;;;10.87;8.17;;;2.30;1.00;;;;;;5014293;28;20202;-69
2023/11/30 07:39:09;;;;;;;9.90;5.57;;;2.40;1.00;;;;;;5014481;28;20252;-70
2023/11/30 07:41:35;;;;;;;7.63;6.23;;;2.40;1.00;;;;;;5010111;28;20283;-69
2023/11/30 07:44:02;;;;;;;8.70;6.23;;;2.40;1.00;;;;;;5009641;28;20198;-69
2023/11/30 07:46:28;;;;;;;10.68;6.10;;;2.40;1.00;;;;;;5009821;28;20955;-70
2023/11/30 07:48:54;;;;;;;8.88;5.88;;;2.40;1.00;;;;;;5008770;28;20244;-70
2023/11/30 07:51:21;;;;;;;9.80;6.43;;;2.50;1.00;;;;;;5010779;28;20186;-70
2023/11/30 07:53:47;;;;;;;9.75;6.00;;;2.50;1.00;;;;;;5010240;28;20837;-69
2023/11/30 07:56:13;;;;;;;8.20;6.00;;;2.60;1.00;;;;;;5008115;28;20301;-70
2023/11/30 07:58:40;;;;;;;9.30;5.90;;;2.70;1.00;;;;;;5009765;28;20442;-70
2023/11/30 08:01:06;;;;;;;19.77;6.25;;;2.70;1.00;;;;;;5009635;28;20281;-70
2023/11/30 08:03:32;;;;;;;6.30;4.63;;;2.70;1.00;;;;;;5011073;28;20273;-69
2023/11/30 08:05:58;;;;;;;8.83;5.60;;;2.70;1.00;;;;;;5013506;28;20450;-68
2023/11/30 08:08:23;;;;;;;9.60;5.70;;;2.70;1.00;;;;;;5013209;28;20711;-70
2023/11/30 08:10:49;;;;;;;7.03;6.20;;;2.80;1.00;;;;;;5010956;28;20587;-70
2023/11/30 08:13:16;;;;;;;11.03;6.50;;;2.80;1.00;;;;;;5010243;28;20260;-68
2023/11/30 08:15:42;;;;;;;8.50;4.93;;;2.80;1.00;;;;;;5009209;28;20460;-70
2023/11/30 08:18:08;;;;;;;7.40;5.37;;;2.80;1.00;;;;;;5009720;28;20194;-70
2023/11/30 08:20:35;;;;;;;7.55;4.32;;;2.80;1.00;;;;;;5009979;28;20797;-71
2023/11/30 08:23:02;;;;;;;7.25;4.70;;;2.80;1.00;;;;;;5009389;28;20678;-69
2023/11/30 08:25:28;;;;;;;5.50;4.10;;;2.80;1.00;;;;;;5008995;28;20213;-69
2023/11/30 08:27:53;;;;;;;8.80;6.43;;;2.80;1.00;;;;;;5007963;28;20243;-69
2023/11/30 08:30:19;;;;;;;7.70;5.73;;;2.90;1.00;;;;;;5009058;28;20746;-69
2023/11/30 08:32:45;;;;;;;5.60;4.47;;;2.90;1.00;;;;;;5020178;28;20220;-68
2023/11/30 08:35:11;;;;;;;17.10;5.40;;;2.90;1.00;;;;;;5005705;28;20301;-74
2023/11/30 08:37:36;;;;;;;6.28;4.30;;;2.90;1.00;;;;;;5021513;28;20296;-70
2023/11/30 08:40:04;;;;;;;8.10;6.00;;;3.00;1.00;;;;;;5019628;28;20831;-69
2023/11/30 08:42:30;;;;;;;7.30;5.00;;;3.10;1.00;;;;;;5024483;28;20186;-70
2023/11/30 08:44:55;;;;;;;7.20;4.57;;;3.10;1.00;;;;;;5018011;28;20340;-69
2023/11/30 08:47:24;;;;;;;9.53;5.63;;;3.10;1.00;;;;;;5010007;28;20558;-69
2023/11/30 08:49:50;;;;;;;8.85;6.25;;;3.10;1.00;;;;;;5007717;28;20190;-69
2023/11/30 08:52:15;;;;;;;11.03;8.73;;;3.20;1.00;;;;;;5007306;28;20194;-69
2023/11/30 08:54:41;;;;;;;10.40;7.27;;;3.30;1.00;;;;;;5006842;28;20268;-69
2023/11/30 08:57:07;;;;;;;12.20;8.20;;;3.30;1.00;;;;;;5007638;28;20209;-68
2023/11/30 08:59:33;;;;;;;13.00;7.80;;;3.40;1.00;;;;;;5008408;28;20203;-69
2023/11/30 09:01:58;;;;;;;7.60;6.10;;;3.50;1.00;;;;;;5008137;28;20214;-69
2023/11/30 09:04:24;;;;;;;9.50;6.40;;;3.60;1.00;;;;;;5008995;28;20601;-69
2023/11/30 09:06:50;;;;;;;11.10;8.43;;;3.70;1.00;;;;;;5008227;28;20222;-68
2023/11/30 09:09:15;;;;;;;8.13;6.10;;;3.70;1.00;;;;;;5008420;28;20247;-69
2023/11/30 09:11:44;;;;;;;22.33;13.03;;;3.80;1.00;;;;;;5008957;28;20194;-69
2023/11/30 09:14:10;;;;;;;19.67;10.70;;;3.90;1.00;;;;;;5008803;28;20182;-69
2023/11/30 09:16:36;;;;;;;11.90;8.33;;;3.90;1.00;;;;;;5008210;28;20230;-69
2023/11/30 09:19:05;;;;;;;9.30;5.90;;;4.00;1.00;;;;;;5008908;28;20491;-69
2023/11/30 09:21:31;;;;;;;7.67;5.57;;;4.00;1.00;;;;;;5007444;28;20512;-69
2023/11/30 09:23:58;;;;;;;6.37;5.73;;;4.00;1.00;;;;;;5008080;28;20850;-69
2023/11/30 09:26:24;;;;;;;9.87;4.50;;;4.00;1.00;;;;;;5008298;28;20185;-69
2023/11/30 09:28:49;;;;;;;6.77;3.97;;;4.00;1.00;;;;;;5008624;28;20929;-69
2023/11/30 09:31:16;;;;;;;6.90;5.00;;;4.10;1.00;;;;;;5008196;28;20426;-69
2023/11/30 09:33:42;;;;;;;6.50;4.33;;;4.10;1.00;;;;;;5008082;28;20222;-69
2023/11/30 09:36:08;;;;;;;4.43;3.73;;;4.10;1.00;;;;;;5008416;28;20456;-69
2023/11/30 09:38:33;;;;;;;5.70;3.90;;;4.10;1.00;;;;;;5006554;28;20450;-69
2023/11/30 09:41:05;;;;;;;5.90;4.50;;;4.20;1.00;;;;;;5008703;28;20429;-69
2023/11/30 09:43:31;;;;;;;6.03;4.10;;;4.20;1.00;;;;;;5008637;28;20189;-69
2023/11/30 09:45:57;;;;;;;6.33;4.60;;;4.20;1.00;;;;;;5007728;28;20484;-69
2023/11/30 09:48:23;;;;;;;5.60;4.27;;;4.30;1.00;;;;;;5030486;23;20497;-72
2023/11/30 09:50:48;;;;;;;6.60;4.67;;;4.40;1.00;;;;;;5007220;28;20225;-69
2023/11/30 09:53:14;;;;;;;6.43;4.73;;;4.40;1.00;;;;;;5007712;28;20200;-71
2023/11/30 09:55:39;;;;;;;8.40;4.70;;;4.30;1.00;;;;;;5007485;28;20601;-69
2023/11/30 09:58:05;;;;;;;8.40;4.33;;;4.40;1.00;;;;;;5007121;28;20229;-70
2023/11/30 10:00:31;;;;;;;9.07;4.90;;;4.40;1.00;;;;;;5006429;28;20189;-70
2023/11/30 10:02:58;;;;;;;11.83;4.53;;;4.40;1.00;;;;;;5006603;28;20198;-68
2023/11/30 10:05:25;;;;;;;5.63;4.23;;;4.50;1.00;;;;;;5008021;28;20428;-69
2023/11/30 10:07:51;;;;;;;5.73;4.20;;;4.60;1.00;;;;;;5007537;28;20445;-70
2023/11/30 10:10:16;;;;;;;5.53;4.00;;;4.70;1.00;;;;;;5007705;28;20431;-69
2023/11/30 10:12:42;;;;;;;9.70;5.70;;;4.70;1.00;;;;;;5008508;28;20434;-70
2023/11/30 10:15:09;;;;;;;7.73;5.00;;;4.80;1.00;;;;;;5005975;28;20211;-70
2023/11/30 10:17:36;;;;;;;5.83;3.87;;;4.90;1.00;;;;;;5007543;28;20233;-69
2023/11/30 10:20:04;;;;;;;10.30;5.20;;;4.80;1.00;;;;;;5007609;28;20418;-70
2023/11/30 10:22:30;;;;;;;4.60;3.40;;;4.80;1.00;;;;;;5007447;28;20430;-69
2023/11/30 10:24:56;;;;;;;5.93;3.93;;;4.80;1.00;;;;;;5007263;28;20500;-70
2023/11/30 10:27:22;;;;;;;6.07;3.47;;;4.90;1.00;;;;;;5008140;28;20438;-69
2023/11/30 10:29:49;;;;;;;5.50;2.70;;;4.90;1.00;;;;;;5007015;28;20763;-70
2023/11/30 10:32:16;;;;;;;5.67;4.20;;;5.00;1.00;;;;;;5006131;28;20433;-70
2023/11/30 10:34:48;;;;;;;7.93;4.60;;;5.10;1.00;;;;;;5007743;28;20462;-70
2023/11/30 10:37:18;;;;;;;6.87;3.50;;;5.10;1.00;;;;;;5007984;28;20864;-69
2023/11/30 10:39:51;;;;;;;7.63;3.43;;;5.10;1.00;;;;;;5008300;28;20427;-70
2023/11/30 10:42:17;;;;;;;7.70;4.33;;;5.10;1.00;;;;;;5007262;28;20441;-70
2023/11/30 10:44:47;;;;;;;6.80;3.53;;;5.40;1.00;;;;;;5007386;28;20713;-69
2023/11/30 10:47:14;;;;;;;6.20;2.87;;;5.40;1.00;;;;;;5007854;28;20648;-69
2023/11/30 10:49:40;;;;;;;7.90;4.30;;;5.50;1.00;;;;;;5007308;28;20423;-70
2023/11/30 10:52:07;;;;;;;4.50;3.37;;;5.80;1.00;;;;;;5007163;28;20418;-70
2023/11/30 10:54:49;;;;;;;8.60;5.20;;;5.70;1.00;;;;;;5007698;28;20538;-71
2023/11/30 10:57:15;;;;;;;11.77;5.90;;;5.90;1.00;;;;;;5007915;28;20510;-70
2023/11/30 10:59:47;;;;;;;10.50;4.97;;;5.90;1.00;;;;;;5008498;28;20443;-70
2023/11/30 11:02:15;;;;;;;8.80;3.67;;;6.00;1.00;;;;;;5010061;28;20423;-69
2023/11/30 11:04:42;;;;;;;5.80;3.70;;;5.80;1.00;;;;;;5011149;28;20767;-71
2023/11/30 11:07:14;;;;;;;4.87;2.97;;;5.80;1.00;;;;;;5011569;28;20437;-71
2023/11/30 11:09:54;;;;;;;3.90;1.93;;;5.90;1.00;;;;;;5010679;28;20502;-70
2023/11/30 11:12:24;;;;;;;4.47;2.40;;;6.00;1.00;;;;;;5011346;28;20422;-70
2023/11/30 11:15:03;;;;;;;5.17;3.00;;;6.10;1.00;;;;;;5011528;28;20454;-71
2023/11/30 11:17:29;;;;;;;6.77;4.23;;;6.20;1.00;;;;;;5011401;28;20434;-71
2023/11/30 11:19:58;;;;;;;5.00;3.13;;;6.10;1.00;;;;;;5010425;28;20410;-70
2023/11/30 11:22:24;;;;;;;4.57;2.80;;;6.00;1.00;;;;;;5010032;28;20183;-70
2023/11/30 11:24:56;;;;;;;6.37;3.97;;;5.90;1.00;;;;;;5011074;28;20906;-71
2023/11/30 11:27:29;;;;;;;4.23;3.07;;;5.70;1.00;;;;;;5011068;28;20203;-70
2023/11/30 11:29:59;;;;;;;6.73;3.13;;;5.80;1.00;;;;;;5010774;28;20490;-71
2023/11/30 11:32:25;;;;;;;4.20;3.10;;;5.70;1.00;;;;;;5013742;28;20485;-71
2023/11/30 11:34:51;;;;;;;4.30;2.60;;;5.90;1.00;;;;;;5014469;28;20459;-71
2023/11/30 11:37:18;;;;;;;7.27;3.10;;;6.00;1.00;;;;;;5014631;28;20746;-70
2023/11/30 11:39:44;;;;;;;2.97;1.93;;;6.10;1.00;;;;;;5014307;28;20473;-70
2023/11/30 11:42:09;;;;;;;5.20;2.40;;;6.10;1.00;;;;;;5014382;28;20415;-71
2023/11/30 11:44:35;;;;;;;5.07;3.10;;;6.00;1.00;;;;;;5014444;28;20185;-71
2023/11/30 11:47:00;;;;;;;7.70;3.20;;;5.90;1.00;;;;;;5012729;28;20213;-71
2023/11/30 11:49:26;;;;;;;4.30;2.10;;;6.00;1.00;;;;;;5014455;28;20179;-70
2023/11/30 11:51:54;;;;;;;3.53;2.40;;;6.10;1.00;;;;;;5014164;28;20191;-72
2023/11/30 11:54:21;;;;;;;4.17;2.33;;;6.10;1.00;;;;;;5014186;28;20663;-70
2023/11/30 11:56:48;;;;;;;2.67;1.30;;;6.10;1.00;;;;;;5012773;28;20418;-71
2023/11/30 11:59:22;;;;;;;3.20;2.10;;;6.10;1.00;;;;;;5014185;28;20403;-69
2023/11/30 12:01:48;;;;;;;3.93;1.83;;;6.20;1.00;;;;;;5012717;28;20505;-72
2023/11/30 12:04:34;;;;;;;4.00;2.40;;;6.40;1.00;;;;;;5014119;28;20785;-71
2023/11/30 12:07:20;;;;;;;2.90;2.30;;;6.30;1.00;;;;;;5013865;28;20452;-71
2023/11/30 12:09:56;;;;;;;3.73;2.00;;;6.20;1.00;;;;;;5013436;28;20422;-71
2023/11/30 12:12:31;;;;;;;3.80;2.50;;;6.00;1.00;;;;;;5014070;28;20463;-71
2023/11/30 12:14:56;;;;;;;8.00;2.73;;;5.90;1.00;;;;;;5013756;28;20458;-71
2023/11/30 12:17:22;;;;;;;4.07;2.23;;;5.80;1.00;;;;;;5013906;28;20510;-71
2023/11/30 12:19:47;;;;;;;21.73;4.00;;;5.70;1.00;;;;;;5013617;28;20259;-72
2023/11/30 12:22:13;;;;;;;5.53;2.50;;;5.70;1.00;;;;;;5013781;28;20180;-71
2023/11/30 12:24:39;;;;;;;8.73;6.70;;;5.80;1.00;;;;;;5013780;28;20168;-72
2023/11/30 12:27:05;;;;;;;11.90;8.87;;;5.70;1.00;;;;;;5013640;28;20438;-72
2023/11/30 12:29:30;;;;;;;15.07;9.10;;;5.80;1.00;;;;;;5013704;28;20595;-71
2023/11/30 12:31:56;;;;;;;11.73;7.97;;;5.70;1.00;;;;;;5013850;28;20184;-71
2023/11/30 12:34:21;;;;;;;11.70;8.40;;;5.50;1.00;;;;;;5013357;28;20206;-72
2023/11/30 12:36:47;;;;;;;12.97;8.60;;;5.30;1.00;;;;;;5013302;28;20188;-72
2023/11/30 12:39:12;;;;;;;13.30;8.63;;;5.40;1.00;;;;;;5013575;28;20178;-72
2023/11/30 12:41:38;;;;;;;13.20;8.60;;;5.20;1.00;;;;;;5012011;28;20259;-72
2023/11/30 12:44:05;;;;;;;12.53;10.00;;;5.10;1.00;;;;;;5011487;28;20183;-72
2023/11/30 12:46:30;;;;;;;14.00;9.57;;;5.10;1.00;;;;;;5011798;28;20195;-74
2023/11/30 12:48:56;;;;;;;13.00;9.43;;;5.20;1.00;;;;;;5013236;28;20451;-73
2023/11/30 12:51:22;;;;;;;9.40;8.40;;;5.10;1.00;;;;;;5013087;28;20184;-76
2023/11/30 12:53:50;;;;;;;12.10;9.10;;;5.00;1.00;;;;;;5013142;28;20184;-71
2023/11/30 12:56:16;;;;;;;15.10;8.90;;;5.00;1.00;;;;;;5011626;28;20208;-72